sensor_id;sensor_type;location;lat;lon;timestamp;temperature;humidity
26342;DHT22;14054;50.108;8.640;2024-03-06T00:00:16;8.00;99.90
26342;DHT22;14054;50.108;8.640;2024-03-06T00:02:41;7.90;99.90
26342;DHT22;14054;50.108;8.640;2024-03-06T00:05:07;7.90;99.90
26342;DHT22;14054;50.108;8.640;2024-03-06T00:07:33;7.90;99.90
26342;DHT22;14054;50.108;8.640;2024-03-06T00:09:58;7.90;99.90
26342;DHT22;14054;50.108;8.640;2024-03-06T00:12:24;7.80;99.90
26342;DHT22;14054;50.108;8.640;2024-03-06T00:14:49;7.90;99.90
26342;DHT22;14054;50.108;8.640;2024-03-06T00:17:15;7.80;99.90
26342;DHT22;14054;50.108;8.640;2024-03-06T00:19:40;7.80;99.90
26342;DHT22;14054;50.108;8.640;2024-03-06T00:22:06;7.70;99.90
26342;DHT22;14054;50.108;8.640;2024-03-06T00:24:31;7.60;99.90
26342;DHT22;14054;50.108;8.640;2024-03-06T00:26:57;7.60;99.90
26342;DHT22;14054;50.108;8.640;2024-03-06T00:29:23;7.60;99.90
26342;DHT22;14054;50.108;8.640;2024-03-06T00:31:48;7.60;99.90
26342;DHT22;14054;50.108;8.640;2024-03-06T00:34:14;7.50;99.90
26342;DHT22;14054;50.108;8.640;2024-03-06T00:36:40;7.40;99.90
26342;DHT22;14054;50.108;8.640;2024-03-06T00:39:06;7.40;99.90
26342;DHT22;14054;50.108;8.640;2024-03-06T00:41:34;7.40;99.90
26342;DHT22;14054;50.108;8.640;2024-03-06T00:43:59;7.30;99.90
26342;DHT22;14054;50.108;8.640;2024-03-06T00:46:25;7.30;99.90
26342;DHT22;14054;50.108;8.640;2024-03-06T00:48:50;7.30;99.90
26342;DHT22;14054;50.108;8.640;2024-03-06T00:51:16;7.30;99.90
26342;DHT22;14054;50.108;8.640;2024-03-06T00:53:41;7.20;99.90
26342;DHT22;14054;50.108;8.640;2024-03-06T00:56:07;7.20;99.90
26342;DHT22;14054;50.108;8.640;2024-03-06T00:58:33;7.10;99.90
26342;DHT22;14054;50.108;8.640;2024-03-06T01:00:58;7.10;99.90
26342;DHT22;14054;50.108;8.640;2024-03-06T01:03:24;7.10;99.90
26342;DHT22;14054;50.108;8.640;2024-03-06T01:05:50;7.00;99.90
26342;DHT22;14054;50.108;8.640;2024-03-06T01:08:17;7.00;99.90
26342;DHT22;14054;50.108;8.640;2024-03-06T01:10:43;7.00;99.90
26342;DHT22;14054;50.108;8.640;2024-03-06T01:13:09;6.90;99.90
26342;DHT22;14054;50.108;8.640;2024-03-06T01:15:36;6.90;99.90
26342;DHT22;14054;50.108;8.640;2024-03-06T01:20:29;6.90;99.90
26342;DHT22;14054;50.108;8.640;2024-03-06T01:22:54;6.80;99.90
26342;DHT22;14054;50.108;8.640;2024-03-06T01:25:20;6.80;99.90
26342;DHT22;14054;50.108;8.640;2024-03-06T01:27:47;6.70;99.90
26342;DHT22;14054;50.108;8.640;2024-03-06T01:30:13;6.70;99.90
26342;DHT22;14054;50.108;8.640;2024-03-06T01:32:39;6.60;99.90
26342;DHT22;14054;50.108;8.640;2024-03-06T01:35:05;6.60;99.90
26342;DHT22;14054;50.108;8.640;2024-03-06T01:37:30;6.60;99.90
26342;DHT22;14054;50.108;8.640;2024-03-06T01:39:56;6.60;99.90
26342;DHT22;14054;50.108;8.640;2024-03-06T01:42:21;6.60;99.90
26342;DHT22;14054;50.108;8.640;2024-03-06T01:44:47;6.60;99.90
26342;DHT22;14054;50.108;8.640;2024-03-06T01:47:12;6.60;99.90
26342;DHT22;14054;50.108;8.640;2024-03-06T01:49:38;6.70;99.90
26342;DHT22;14054;50.108;8.640;2024-03-06T01:52:03;6.70;99.90
26342;DHT22;14054;50.108;8.640;2024-03-06T01:54:30;6.70;99.90
26342;DHT22;14054;50.108;8.640;2024-03-06T01:56:57;6.70;99.90
26342;DHT22;14054;50.108;8.640;2024-03-06T01:59:25;6.70;99.90
26342;DHT22;14054;50.108;8.640;2024-03-06T02:01:53;6.70;99.90
26342;DHT22;14054;50.108;8.640;2024-03-06T02:04:19;6.70;99.90
26342;DHT22;14054;50.108;8.640;2024-03-06T02:06:45;6.60;99.90
26342;DHT22;14054;50.108;8.640;2024-03-06T02:09:12;6.60;99.90
26342;DHT22;14054;50.108;8.640;2024-03-06T02:11:39;6.60;99.90
26342;DHT22;14054;50.108;8.640;2024-03-06T02:14:04;6.50;99.90
26342;DHT22;14054;50.108;8.640;2024-03-06T02:16:32;6.40;99.90
26342;DHT22;14054;50.108;8.640;2024-03-06T02:18:57;6.30;99.90
26342;DHT22;14054;50.108;8.640;2024-03-06T02:21:24;6.30;99.90
26342;DHT22;14054;50.108;8.640;2024-03-06T02:23:50;6.30;99.90
26342;DHT22;14054;50.108;8.640;2024-03-06T02:26:17;6.20;99.90
26342;DHT22;14054;50.108;8.640;2024-03-06T02:28:54;6.30;99.90
26342;DHT22;14054;50.108;8.640;2024-03-06T02:31:20;6.30;99.90
26342;DHT22;14054;50.108;8.640;2024-03-06T02:33:47;6.30;99.90
26342;DHT22;14054;50.108;8.640;2024-03-06T02:36:13;6.20;99.90
26342;DHT22;14054;50.108;8.640;2024-03-06T02:38:39;6.20;99.90
26342;DHT22;14054;50.108;8.640;2024-03-06T02:41:05;6.10;99.90
26342;DHT22;14054;50.108;8.640;2024-03-06T02:43:35;6.10;99.90
26342;DHT22;14054;50.108;8.640;2024-03-06T02:46:01;6.10;99.90
26342;DHT22;14054;50.108;8.640;2024-03-06T02:48:26;6.10;99.90
26342;DHT22;14054;50.108;8.640;2024-03-06T02:50:52;6.00;99.90
26342;DHT22;14054;50.108;8.640;2024-03-06T02:53:17;6.00;99.90
26342;DHT22;14054;50.108;8.640;2024-03-06T02:55:43;6.00;99.90
26342;DHT22;14054;50.108;8.640;2024-03-06T02:58:08;5.90;99.90
26342;DHT22;14054;50.108;8.640;2024-03-06T03:00:34;5.90;99.90
26342;DHT22;14054;50.108;8.640;2024-03-06T03:03:00;5.90;99.90
26342;DHT22;14054;50.108;8.640;2024-03-06T03:05:25;5.90;99.90
26342;DHT22;14054;50.108;8.640;2024-03-06T03:07:51;5.90;99.90
26342;DHT22;14054;50.108;8.640;2024-03-06T03:10:17;5.90;99.90
26342;DHT22;14054;50.108;8.640;2024-03-06T03:12:42;5.80;99.90
26342;DHT22;14054;50.108;8.640;2024-03-06T03:15:09;5.80;99.90
26342;DHT22;14054;50.108;8.640;2024-03-06T03:17:35;5.80;99.90
26342;DHT22;14054;50.108;8.640;2024-03-06T03:20:01;5.80;99.90
26342;DHT22;14054;50.108;8.640;2024-03-06T03:22:44;5.80;99.90
26342;DHT22;14054;50.108;8.640;2024-03-06T03:25:10;5.80;99.90
26342;DHT22;14054;50.108;8.640;2024-03-06T03:27:37;5.70;99.90
26342;DHT22;14054;50.108;8.640;2024-03-06T03:30:05;5.70;99.90
26342;DHT22;14054;50.108;8.640;2024-03-06T03:32:32;5.70;99.90
26342;DHT22;14054;50.108;8.640;2024-03-06T03:34:57;5.70;99.90
26342;DHT22;14054;50.108;8.640;2024-03-06T03:37:23;5.70;99.90
26342;DHT22;14054;50.108;8.640;2024-03-06T03:39:49;5.70;99.90
26342;DHT22;14054;50.108;8.640;2024-03-06T03:42:14;5.70;99.90
26342;DHT22;14054;50.108;8.640;2024-03-06T03:44:39;5.70;99.90
26342;DHT22;14054;50.108;8.640;2024-03-06T03:47:05;5.70;99.90
26342;DHT22;14054;50.108;8.640;2024-03-06T03:49:31;5.70;99.90
26342;DHT22;14054;50.108;8.640;2024-03-06T03:51:56;5.70;99.90
26342;DHT22;14054;50.108;8.640;2024-03-06T03:54:22;5.80;99.90
26342;DHT22;14054;50.108;8.640;2024-03-06T03:56:47;5.80;99.90
26342;DHT22;14054;50.108;8.640;2024-03-06T03:59:13;5.80;99.90
26342;DHT22;14054;50.108;8.640;2024-03-06T04:01:39;5.80;99.90
26342;DHT22;14054;50.108;8.640;2024-03-06T04:04:05;5.80;99.90
26342;DHT22;14054;50.108;8.640;2024-03-06T04:06:32;5.80;99.90
26342;DHT22;14054;50.108;8.640;2024-03-06T04:08:57;5.80;99.90
26342;DHT22;14054;50.108;8.640;2024-03-06T04:11:23;5.70;99.90
26342;DHT22;14054;50.108;8.640;2024-03-06T04:13:48;5.70;99.90
26342;DHT22;14054;50.108;8.640;2024-03-06T04:16:17;5.70;99.90
26342;DHT22;14054;50.108;8.640;2024-03-06T04:18:43;5.70;99.90
26342;DHT22;14054;50.108;8.640;2024-03-06T04:21:10;5.70;99.90
26342;DHT22;14054;50.108;8.640;2024-03-06T04:23:36;5.60;99.90
26342;DHT22;14054;50.108;8.640;2024-03-06T04:26:02;5.60;99.90
26342;DHT22;14054;50.108;8.640;2024-03-06T04:28:28;5.60;99.90
26342;DHT22;14054;50.108;8.640;2024-03-06T04:30:55;5.60;99.90
26342;DHT22;14054;50.108;8.640;2024-03-06T04:33:20;5.60;99.90
26342;DHT22;14054;50.108;8.640;2024-03-06T04:35:46;5.60;99.90
26342;DHT22;14054;50.108;8.640;2024-03-06T04:38:11;5.60;99.90
26342;DHT22;14054;50.108;8.640;2024-03-06T04:40:37;5.60;99.90
26342;DHT22;14054;50.108;8.640;2024-03-06T04:43:02;5.60;99.90
26342;DHT22;14054;50.108;8.640;2024-03-06T04:45:27;5.60;99.90
26342;DHT22;14054;50.108;8.640;2024-03-06T04:47:56;5.70;99.90
26342;DHT22;14054;50.108;8.640;2024-03-06T04:50:21;5.70;99.90
26342;DHT22;14054;50.108;8.640;2024-03-06T04:52:47;5.60;99.90
26342;DHT22;14054;50.108;8.640;2024-03-06T04:55:13;5.60;99.90
26342;DHT22;14054;50.108;8.640;2024-03-06T04:57:43;5.70;99.90
26342;DHT22;14054;50.108;8.640;2024-03-06T05:00:10;5.70;99.90
26342;DHT22;14054;50.108;8.640;2024-03-06T05:02:35;5.60;99.90
26342;DHT22;14054;50.108;8.640;2024-03-06T05:05:03;5.60;99.90
26342;DHT22;14054;50.108;8.640;2024-03-06T05:07:32;5.60;99.90
26342;DHT22;14054;50.108;8.640;2024-03-06T05:09:58;5.60;99.90
26342;DHT22;14054;50.108;8.640;2024-03-06T05:12:24;5.60;99.90
26342;DHT22;14054;50.108;8.640;2024-03-06T05:14:50;5.60;99.90
26342;DHT22;14054;50.108;8.640;2024-03-06T05:17:16;5.70;99.90
26342;DHT22;14054;50.108;8.640;2024-03-06T05:19:43;5.70;99.90
26342;DHT22;14054;50.108;8.640;2024-03-06T05:22:08;5.70;99.90
26342;DHT22;14054;50.108;8.640;2024-03-06T05:24:34;5.70;99.90
26342;DHT22;14054;50.108;8.640;2024-03-06T05:26:59;5.70;99.90
26342;DHT22;14054;50.108;8.640;2024-03-06T05:29:25;5.70;99.90
26342;DHT22;14054;50.108;8.640;2024-03-06T05:31:51;5.70;99.90
26342;DHT22;14054;50.108;8.640;2024-03-06T05:34:16;5.70;99.90
26342;DHT22;14054;50.108;8.640;2024-03-06T05:36:42;5.50;99.90
26342;DHT22;14054;50.108;8.640;2024-03-06T05:39:07;5.60;99.90
26342;DHT22;14054;50.108;8.640;2024-03-06T05:41:38;5.50;99.90
26342;DHT22;14054;50.108;8.640;2024-03-06T05:44:04;5.40;99.90
26342;DHT22;14054;50.108;8.640;2024-03-06T05:46:30;5.40;99.90
26342;DHT22;14054;50.108;8.640;2024-03-06T05:48:55;5.40;99.90
26342;DHT22;14054;50.108;8.640;2024-03-06T05:51:21;5.40;99.90
26342;DHT22;14054;50.108;8.640;2024-03-06T05:53:46;5.40;99.90
26342;DHT22;14054;50.108;8.640;2024-03-06T05:56:12;5.50;99.90
26342;DHT22;14054;50.108;8.640;2024-03-06T05:58:37;5.60;99.90
26342;DHT22;14054;50.108;8.640;2024-03-06T06:01:03;5.60;99.90
26342;DHT22;14054;50.108;8.640;2024-03-06T06:03:29;5.60;99.90
26342;DHT22;14054;50.108;8.640;2024-03-06T06:05:55;5.70;99.90
26342;DHT22;14054;50.108;8.640;2024-03-06T06:08:21;5.70;99.90
26342;DHT22;14054;50.108;8.640;2024-03-06T06:10:46;5.70;99.90
26342;DHT22;14054;50.108;8.640;2024-03-06T06:13:12;5.70;99.90
26342;DHT22;14054;50.108;8.640;2024-03-06T06:15:37;5.80;99.90
26342;DHT22;14054;50.108;8.640;2024-03-06T06:18:03;5.70;99.90
26342;DHT22;14054;50.108;8.640;2024-03-06T06:20:29;5.70;99.90
26342;DHT22;14054;50.108;8.640;2024-03-06T06:22:55;5.80;99.90
26342;DHT22;14054;50.108;8.640;2024-03-06T06:25:21;5.80;99.90
26342;DHT22;14054;50.108;8.640;2024-03-06T06:27:47;5.80;99.90
26342;DHT22;14054;50.108;8.640;2024-03-06T06:30:15;5.70;99.90
26342;DHT22;14054;50.108;8.640;2024-03-06T06:32:41;5.70;99.90
26342;DHT22;14054;50.108;8.640;2024-03-06T06:35:07;5.70;99.90
26342;DHT22;14054;50.108;8.640;2024-03-06T06:37:33;5.70;99.90
26342;DHT22;14054;50.108;8.640;2024-03-06T06:39:59;5.70;99.90
26342;DHT22;14054;50.108;8.640;2024-03-06T06:42:25;5.70;99.90
26342;DHT22;14054;50.108;8.640;2024-03-06T06:44:50;5.80;99.90
26342;DHT22;14054;50.108;8.640;2024-03-06T06:47:16;5.80;99.90
26342;DHT22;14054;50.108;8.640;2024-03-06T06:49:42;5.80;99.90
26342;DHT22;14054;50.108;8.640;2024-03-06T06:52:07;5.90;99.90
26342;DHT22;14054;50.108;8.640;2024-03-06T06:54:33;5.90;99.90
26342;DHT22;14054;50.108;8.640;2024-03-06T06:56:58;6.00;99.90
26342;DHT22;14054;50.108;8.640;2024-03-06T06:59:24;6.10;99.90
26342;DHT22;14054;50.108;8.640;2024-03-06T07:01:49;6.10;99.90
26342;DHT22;14054;50.108;8.640;2024-03-06T07:04:15;6.20;99.90
26342;DHT22;14054;50.108;8.640;2024-03-06T07:06:45;6.30;99.90
26342;DHT22;14054;50.108;8.640;2024-03-06T07:09:12;6.40;99.90
26342;DHT22;14054;50.108;8.640;2024-03-06T07:11:37;6.50;99.90
26342;DHT22;14054;50.108;8.640;2024-03-06T07:14:02;6.60;99.90
26342;DHT22;14054;50.108;8.640;2024-03-06T07:16:28;6.60;99.90
26342;DHT22;14054;50.108;8.640;2024-03-06T07:18:53;6.60;99.90
26342;DHT22;14054;50.108;8.640;2024-03-06T07:21:19;6.70;99.90
26342;DHT22;14054;50.108;8.640;2024-03-06T07:23:44;6.70;99.90
26342;DHT22;14054;50.108;8.640;2024-03-06T07:26:10;6.80;99.90
26342;DHT22;14054;50.108;8.640;2024-03-06T07:28:35;6.70;99.90
26342;DHT22;14054;50.108;8.640;2024-03-06T07:31:02;6.80;99.90
26342;DHT22;14054;50.108;8.640;2024-03-06T07:33:28;6.80;99.90
26342;DHT22;14054;50.108;8.640;2024-03-06T07:35:53;6.80;99.90
26342;DHT22;14054;50.108;8.640;2024-03-06T07:38:20;6.80;99.90
26342;DHT22;14054;50.108;8.640;2024-03-06T07:40:46;6.80;99.90
26342;DHT22;14054;50.108;8.640;2024-03-06T07:43:11;6.80;99.90
26342;DHT22;14054;50.108;8.640;2024-03-06T07:45:37;6.90;99.90
26342;DHT22;14054;50.108;8.640;2024-03-06T07:48:03;6.90;99.90
26342;DHT22;14054;50.108;8.640;2024-03-06T07:50:29;7.00;99.90
26342;DHT22;14054;50.108;8.640;2024-03-06T07:52:54;7.20;99.90
26342;DHT22;14054;50.108;8.640;2024-03-06T07:55:20;7.40;99.90
26342;DHT22;14054;50.108;8.640;2024-03-06T07:57:47;7.50;99.90
26342;DHT22;14054;50.108;8.640;2024-03-06T08:00:13;7.70;99.90
26342;DHT22;14054;50.108;8.640;2024-03-06T08:02:45;8.20;99.90
26342;DHT22;14054;50.108;8.640;2024-03-06T08:05:15;8.90;99.90
26342;DHT22;14054;50.108;8.640;2024-03-06T08:07:41;8.90;99.90
26342;DHT22;14054;50.108;8.640;2024-03-06T08:10:08;8.90;99.90
26342;DHT22;14054;50.108;8.640;2024-03-06T08:12:34;8.60;99.90
26342;DHT22;14054;50.108;8.640;2024-03-06T08:15:00;8.30;99.90
26342;DHT22;14054;50.108;8.640;2024-03-06T08:17:27;8.30;99.90
26342;DHT22;14054;50.108;8.640;2024-03-06T08:19:53;8.00;99.90
26342;DHT22;14054;50.108;8.640;2024-03-06T08:22:18;7.90;99.90
26342;DHT22;14054;50.108;8.640;2024-03-06T08:24:44;7.60;99.90
26342;DHT22;14054;50.108;8.640;2024-03-06T08:27:09;7.50;99.90
26342;DHT22;14054;50.108;8.640;2024-03-06T08:29:35;7.60;99.90
26342;DHT22;14054;50.108;8.640;2024-03-06T08:32:00;7.50;99.90
26342;DHT22;14054;50.108;8.640;2024-03-06T08:34:26;7.60;99.90
26342;DHT22;14054;50.108;8.640;2024-03-06T08:36:51;7.60;99.90
26342;DHT22;14054;50.108;8.640;2024-03-06T08:39:18;7.60;99.90
26342;DHT22;14054;50.108;8.640;2024-03-06T08:41:44;7.90;99.90
26342;DHT22;14054;50.108;8.640;2024-03-06T08:44:09;8.20;99.90
26342;DHT22;14054;50.108;8.640;2024-03-06T08:46:35;8.50;99.90
26342;DHT22;14054;50.108;8.640;2024-03-06T08:49:00;8.60;99.90
26342;DHT22;14054;50.108;8.640;2024-03-06T08:51:26;8.70;99.90
26342;DHT22;14054;50.108;8.640;2024-03-06T08:53:51;8.90;99.90
26342;DHT22;14054;50.108;8.640;2024-03-06T08:56:17;9.00;99.90
26342;DHT22;14054;50.108;8.640;2024-03-06T08:58:43;9.10;99.90
26342;DHT22;14054;50.108;8.640;2024-03-06T09:01:09;9.20;99.90
26342;DHT22;14054;50.108;8.640;2024-03-06T09:03:34;9.40;99.90
26342;DHT22;14054;50.108;8.640;2024-03-06T09:06:00;9.40;99.90
26342;DHT22;14054;50.108;8.640;2024-03-06T09:08:28;9.40;99.90
26342;DHT22;14054;50.108;8.640;2024-03-06T09:10:53;9.60;99.90
26342;DHT22;14054;50.108;8.640;2024-03-06T09:13:19;9.50;99.90
26342;DHT22;14054;50.108;8.640;2024-03-06T09:15:45;9.50;99.90
26342;DHT22;14054;50.108;8.640;2024-03-06T09:18:10;9.40;99.90
26342;DHT22;14054;50.108;8.640;2024-03-06T09:20:36;9.50;99.90
26342;DHT22;14054;50.108;8.640;2024-03-06T09:23:01;9.60;99.90
26342;DHT22;14054;50.108;8.640;2024-03-06T09:25:27;9.70;99.90
26342;DHT22;14054;50.108;8.640;2024-03-06T09:27:52;9.70;99.90
26342;DHT22;14054;50.108;8.640;2024-03-06T09:30:17;9.90;99.90
26342;DHT22;14054;50.108;8.640;2024-03-06T09:32:43;10.10;99.90
26342;DHT22;14054;50.108;8.640;2024-03-06T09:35:09;10.20;99.90
26342;DHT22;14054;50.108;8.640;2024-03-06T09:37:35;10.30;99.90
26342;DHT22;14054;50.108;8.640;2024-03-06T09:42:26;10.60;99.90
26342;DHT22;14054;50.108;8.640;2024-03-06T09:44:52;10.40;99.90
26342;DHT22;14054;50.108;8.640;2024-03-06T09:47:21;10.00;99.90
26342;DHT22;14054;50.108;8.640;2024-03-06T09:49:53;10.10;99.90
26342;DHT22;14054;50.108;8.640;2024-03-06T09:52:19;10.20;99.90
26342;DHT22;14054;50.108;8.640;2024-03-06T09:54:44;10.20;99.90
26342;DHT22;14054;50.108;8.640;2024-03-06T09:57:10;10.50;99.90
26342;DHT22;14054;50.108;8.640;2024-03-06T09:59:36;10.80;99.90
26342;DHT22;14054;50.108;8.640;2024-03-06T10:02:18;10.30;99.90
26342;DHT22;14054;50.108;8.640;2024-03-06T10:04:44;10.50;99.90
26342;DHT22;14054;50.108;8.640;2024-03-06T10:07:09;10.20;99.90
26342;DHT22;14054;50.108;8.640;2024-03-06T10:09:35;10.40;99.90
26342;DHT22;14054;50.108;8.640;2024-03-06T10:12:01;10.70;99.90
26342;DHT22;14054;50.108;8.640;2024-03-06T10:14:27;11.00;99.90
26342;DHT22;14054;50.108;8.640;2024-03-06T10:16:58;11.30;99.90
26342;DHT22;14054;50.108;8.640;2024-03-06T10:19:25;11.40;99.90
26342;DHT22;14054;50.108;8.640;2024-03-06T10:21:53;11.60;99.90
26342;DHT22;14054;50.108;8.640;2024-03-06T10:24:22;11.20;99.90
26342;DHT22;14054;50.108;8.640;2024-03-06T10:26:49;11.10;99.90
26342;DHT22;14054;50.108;8.640;2024-03-06T10:29:18;11.10;99.90
26342;DHT22;14054;50.108;8.640;2024-03-06T10:32:02;10.90;99.90
26342;DHT22;14054;50.108;8.640;2024-03-06T10:34:28;11.20;99.90
26342;DHT22;14054;50.108;8.640;2024-03-06T10:36:56;11.00;99.90
26342;DHT22;14054;50.108;8.640;2024-03-06T10:39:22;11.00;99.90
26342;DHT22;14054;50.108;8.640;2024-03-06T10:41:55;11.20;99.90
26342;DHT22;14054;50.108;8.640;2024-03-06T10:44:25;11.10;99.90
26342;DHT22;14054;50.108;8.640;2024-03-06T10:47:09;11.70;99.90
26342;DHT22;14054;50.108;8.640;2024-03-06T10:49:37;11.80;99.90
26342;DHT22;14054;50.108;8.640;2024-03-06T10:52:04;11.50;99.90
26342;DHT22;14054;50.108;8.640;2024-03-06T10:54:34;11.70;99.90
26342;DHT22;14054;50.108;8.640;2024-03-06T10:57:02;11.90;99.90
26342;DHT22;14054;50.108;8.640;2024-03-06T10:59:29;12.50;99.90
26342;DHT22;14054;50.108;8.640;2024-03-06T11:01:58;13.40;99.90
26342;DHT22;14054;50.108;8.640;2024-03-06T11:04:28;13.20;99.90
26342;DHT22;14054;50.108;8.640;2024-03-06T11:06:56;13.00;99.90
26342;DHT22;14054;50.108;8.640;2024-03-06T11:09:22;12.90;99.90
26342;DHT22;14054;50.108;8.640;2024-03-06T11:11:52;12.80;99.90
26342;DHT22;14054;50.108;8.640;2024-03-06T11:14:18;12.60;99.90
26342;DHT22;14054;50.108;8.640;2024-03-06T11:17:03;12.40;99.90
26342;DHT22;14054;50.108;8.640;2024-03-06T11:19:30;12.40;99.90
26342;DHT22;14054;50.108;8.640;2024-03-06T11:21:56;12.60;99.90
26342;DHT22;14054;50.108;8.640;2024-03-06T11:24:32;12.20;99.90
26342;DHT22;14054;50.108;8.640;2024-03-06T11:27:02;12.30;99.90
26342;DHT22;14054;50.108;8.640;2024-03-06T11:30:06;13.00;99.90
26342;DHT22;14054;50.108;8.640;2024-03-06T11:32:37;14.10;99.90
26342;DHT22;14054;50.108;8.640;2024-03-06T11:35:04;12.90;99.90
26342;DHT22;14054;50.108;8.640;2024-03-06T11:37:33;13.10;99.90
26342;DHT22;14054;50.108;8.640;2024-03-06T11:40:00;12.60;99.90
26342;DHT22;14054;50.108;8.640;2024-03-06T11:42:34;12.70;99.90
26342;DHT22;14054;50.108;8.640;2024-03-06T11:45:12;12.80;99.90
26342;DHT22;14054;50.108;8.640;2024-03-06T11:47:59;13.10;99.90
26342;DHT22;14054;50.108;8.640;2024-03-06T11:50:26;13.30;99.90
26342;DHT22;14054;50.108;8.640;2024-03-06T11:52:51;13.30;99.90
26342;DHT22;14054;50.108;8.640;2024-03-06T11:55:17;13.60;99.90
26342;DHT22;14054;50.108;8.640;2024-03-06T11:57:42;13.60;99.90
26342;DHT22;14054;50.108;8.640;2024-03-06T12:00:08;14.00;99.90
26342;DHT22;14054;50.108;8.640;2024-03-06T12:02:36;14.60;99.90
26342;DHT22;14054;50.108;8.640;2024-03-06T12:05:02;14.10;99.90
26342;DHT22;14054;50.108;8.640;2024-03-06T12:07:28;14.30;99.90
26342;DHT22;14054;50.108;8.640;2024-03-06T12:09:54;15.50;99.90
26342;DHT22;14054;50.108;8.640;2024-03-06T12:12:19;14.90;99.90
26342;DHT22;14054;50.108;8.640;2024-03-06T12:14:58;14.90;99.90
26342;DHT22;14054;50.108;8.640;2024-03-06T12:19:51;17.50;99.90
26342;DHT22;14054;50.108;8.640;2024-03-06T12:22:25;18.20;99.90
26342;DHT22;14054;50.108;8.640;2024-03-06T12:25:00;18.10;89.90
26342;DHT22;14054;50.108;8.640;2024-03-06T12:27:26;18.30;89.50
26342;DHT22;14054;50.108;8.640;2024-03-06T12:29:52;16.50;91.00
26342;DHT22;14054;50.108;8.640;2024-03-06T12:32:19;16.20;91.70
26342;DHT22;14054;50.108;8.640;2024-03-06T12:34:44;16.40;92.20
26342;DHT22;14054;50.108;8.640;2024-03-06T12:37:10;16.20;92.50
26342;DHT22;14054;50.108;8.640;2024-03-06T12:39:36;15.50;93.50
26342;DHT22;14054;50.108;8.640;2024-03-06T12:42:02;15.20;94.60
26342;DHT22;14054;50.108;8.640;2024-03-06T12:46:53;13.60;99.40
26342;DHT22;14054;50.108;8.640;2024-03-06T12:49:18;13.10;99.80
26342;DHT22;14054;50.108;8.640;2024-03-06T12:51:44;12.50;99.90
26342;DHT22;14054;50.108;8.640;2024-03-06T12:54:09;12.50;99.90
26342;DHT22;14054;50.108;8.640;2024-03-06T12:56:35;12.20;99.90
26342;DHT22;14054;50.108;8.640;2024-03-06T12:59:01;12.20;99.90
26342;DHT22;14054;50.108;8.640;2024-03-06T13:01:26;12.50;99.90
26342;DHT22;14054;50.108;8.640;2024-03-06T13:03:52;12.60;99.90
26342;DHT22;14054;50.108;8.640;2024-03-06T13:06:17;12.50;99.90
26342;DHT22;14054;50.108;8.640;2024-03-06T13:08:43;12.50;99.90
26342;DHT22;14054;50.108;8.640;2024-03-06T13:11:08;12.50;99.90
26342;DHT22;14054;50.108;8.640;2024-03-06T13:13:35;12.50;99.90
26342;DHT22;14054;50.108;8.640;2024-03-06T13:16:00;12.50;99.90
26342;DHT22;14054;50.108;8.640;2024-03-06T13:18:26;12.40;99.90
26342;DHT22;14054;50.108;8.640;2024-03-06T13:20:51;12.10;99.90
26342;DHT22;14054;50.108;8.640;2024-03-06T13:23:17;12.00;99.90
26342;DHT22;14054;50.108;8.640;2024-03-06T13:25:43;11.90;99.90
26342;DHT22;14054;50.108;8.640;2024-03-06T13:28:09;12.10;99.90
26342;DHT22;14054;50.108;8.640;2024-03-06T13:30:34;12.10;99.90
26342;DHT22;14054;50.108;8.640;2024-03-06T13:33:00;12.20;99.90
26342;DHT22;14054;50.108;8.640;2024-03-06T13:35:26;12.40;99.90
26342;DHT22;14054;50.108;8.640;2024-03-06T13:37:52;12.40;99.90
26342;DHT22;14054;50.108;8.640;2024-03-06T13:40:19;12.30;99.90
26342;DHT22;14054;50.108;8.640;2024-03-06T13:42:44;12.40;99.90
26342;DHT22;14054;50.108;8.640;2024-03-06T13:45:10;12.20;99.90
26342;DHT22;14054;50.108;8.640;2024-03-06T13:47:40;12.30;99.90
26342;DHT22;14054;50.108;8.640;2024-03-06T13:50:15;12.40;99.90
26342;DHT22;14054;50.108;8.640;2024-03-06T13:52:42;12.50;99.90
26342;DHT22;14054;50.108;8.640;2024-03-06T13:55:09;12.50;99.90
26342;DHT22;14054;50.108;8.640;2024-03-06T13:57:36;12.70;99.90
26342;DHT22;14054;50.108;8.640;2024-03-06T14:00:06;12.80;99.90
26342;DHT22;14054;50.108;8.640;2024-03-06T14:02:32;13.00;99.90
26342;DHT22;14054;50.108;8.640;2024-03-06T14:04:58;13.00;99.90
26342;DHT22;14054;50.108;8.640;2024-03-06T14:07:24;12.60;99.90
26342;DHT22;14054;50.108;8.640;2024-03-06T14:09:52;12.90;99.90
26342;DHT22;14054;50.108;8.640;2024-03-06T14:12:18;12.50;99.90
26342;DHT22;14054;50.108;8.640;2024-03-06T14:14:44;12.50;99.90
26342;DHT22;14054;50.108;8.640;2024-03-06T14:17:12;12.30;99.90
26342;DHT22;14054;50.108;8.640;2024-03-06T14:19:38;12.40;99.90
26342;DHT22;14054;50.108;8.640;2024-03-06T14:22:05;12.60;99.90
26342;DHT22;14054;50.108;8.640;2024-03-06T14:24:31;12.40;99.90
26342;DHT22;14054;50.108;8.640;2024-03-06T14:26:57;12.50;99.90
26342;DHT22;14054;50.108;8.640;2024-03-06T14:29:22;12.40;99.90
26342;DHT22;14054;50.108;8.640;2024-03-06T14:31:48;12.40;99.90
26342;DHT22;14054;50.108;8.640;2024-03-06T14:34:13;12.20;99.90
26342;DHT22;14054;50.108;8.640;2024-03-06T14:36:39;12.10;99.90
26342;DHT22;14054;50.108;8.640;2024-03-06T14:39:05;12.10;99.90
26342;DHT22;14054;50.108;8.640;2024-03-06T14:41:31;12.20;99.90
26342;DHT22;14054;50.108;8.640;2024-03-06T14:43:57;12.00;99.90
26342;DHT22;14054;50.108;8.640;2024-03-06T14:46:23;12.10;99.90
26342;DHT22;14054;50.108;8.640;2024-03-06T14:48:48;12.40;99.90
26342;DHT22;14054;50.108;8.640;2024-03-06T14:51:14;12.30;99.90
26342;DHT22;14054;50.108;8.640;2024-03-06T14:53:39;12.10;99.90
26342;DHT22;14054;50.108;8.640;2024-03-06T14:56:05;11.90;99.90
26342;DHT22;14054;50.108;8.640;2024-03-06T14:58:30;11.60;99.90
26342;DHT22;14054;50.108;8.640;2024-03-06T15:00:56;11.50;99.90
26342;DHT22;14054;50.108;8.640;2024-03-06T15:03:21;11.80;99.90
26342;DHT22;14054;50.108;8.640;2024-03-06T15:05:47;12.00;99.90
26342;DHT22;14054;50.108;8.640;2024-03-06T15:08:13;12.10;99.90
26342;DHT22;14054;50.108;8.640;2024-03-06T15:10:39;12.10;99.90
26342;DHT22;14054;50.108;8.640;2024-03-06T15:13:04;12.30;99.90
26342;DHT22;14054;50.108;8.640;2024-03-06T15:15:30;12.30;99.90
26342;DHT22;14054;50.108;8.640;2024-03-06T15:17:57;12.20;99.90
26342;DHT22;14054;50.108;8.640;2024-03-06T15:20:22;12.30;99.90
26342;DHT22;14054;50.108;8.640;2024-03-06T15:22:48;12.20;99.90
26342;DHT22;14054;50.108;8.640;2024-03-06T15:25:13;12.30;99.90
26342;DHT22;14054;50.108;8.640;2024-03-06T15:27:40;12.20;99.90
26342;DHT22;14054;50.108;8.640;2024-03-06T15:30:07;11.90;99.90
26342;DHT22;14054;50.108;8.640;2024-03-06T15:32:36;11.80;99.90
26342;DHT22;14054;50.108;8.640;2024-03-06T15:35:02;11.70;99.90
26342;DHT22;14054;50.108;8.640;2024-03-06T15:37:29;11.70;99.90
26342;DHT22;14054;50.108;8.640;2024-03-06T15:39:55;11.70;99.90
26342;DHT22;14054;50.108;8.640;2024-03-06T15:42:22;11.50;99.90
26342;DHT22;14054;50.108;8.640;2024-03-06T15:44:48;11.40;99.90